Date,TemperatureHighF,TemperatureAvgF,TemperatureLowF,DewpointHighF,DewpointAvgF,DewpointLowF,HumidityHigh,HumidityAvg,HumidityLow,PressureMaxIn,PressureMinIn,WindSpeedMaxMPH,WindSpeedAvgMPH,GustSpeedMaxMPH,PrecipitationSumIn
2013-8-1,96,86,80,67,62,59,63,46,32,30.07,29.96,0,-999,0,0.00
2013-8-2,100,86,79,67,64,62,60,49,31,30.05,29.96,0,-999,0,0.00
2013-8-3,104,88,76,64,60,57,59,40,22,30.08,29.95,0,-999,0,0.00
2013-8-4,102,88,79,65,61,56,57,41,26,30.10,29.96,0,-999,0,0.00
2013-8-5,100,83,69,71,62,55,96,52,23,30.12,29.96,0,-999,0,0.00
2013-8-6,86,76,69,71,66,61,98,73,48,30.12,30.01,0,-999,0,0.00
2013-8-7,98,83,68,68,61,53,92,53,23,30.11,29.96,0,-999,0,0.00
2013-8-8,103,86,70,61,51,37,67,35,11,30.05,29.91,0,-999,0,0.00
2013-8-9,105,87,65,53,47,41,58,28,14,30.03,29.90,0,-999,0,0.00
2013-8-10,104,88,69,50,44,38,40,23,13,30.09,29.95,0,-999,0,0.00
2013-8-11,104,88,72,61,55,40,49,33,22,30.06,29.90,0,-999,0,0.00
2013-8-12,107,90,72,62,51,37,63,30,13,30.02,29.89,0,-999,0,0.00
2013-8-13,107,89,68,50,42,39,45,22,10,30.08,29.92,0,-999,0,0.00
2013-8-14,108,90,76,62,51,40,45,28,13,30.05,29.89,0,-999,0,0.00
2013-8-15,107,91,75,70,59,54,84,37,18,30.07,29.92,0,-999,0,0.00
2013-8-16,108,91,77,66,60,51,60,37,15,30.06,29.91,0,-999,0,0.00
2013-8-17,110,93,76,63,58,47,63,34,16,30.07,29.86,0,-999,0,0.00
2013-8-18,98,86,79,61,58,53,52,39,26,30.07,29.96,0,-999,0,0.00
2013-8-19,109,91,75,64,58,52,61,35,16,30.06,29.91,0,-999,0,0.00
2013-8-20,107,86,73,67,62,57,78,45,21,30.04,29.91,0,-999,0,0.00
2013-8-21,97,84,76,66,62,57,65,48,27,30.05,29.93,0,-999,0,0.00
2013-8-22,103,85,74,72,62,58,79,49,23,30.06,29.88,0,-999,0,0.00
2013-8-23,102,84,69,68,61,54,83,50,22,30.01,29.84,0,-999,0,0.00
2013-8-24,97,81,71,72,63,58,99,57,29,30.05,29.92,0,-999,0,0.00
2013-8-25,96,78,72,75,71,65,99,79,37,30.08,29.98,0,-999,0,0.00
2013-8-26,101,79,71,76,70,64,100,75,34,30.07,29.91,0,-999,0,0.00
2013-8-27,103,85,68,70,64,55,100,55,21,30.00,29.85,0,-999,0,0.00
2013-8-28,102,84,74,73,64,60,91,54,26,30.06,29.90,0,-999,0,0.00
2013-8-29,88,78,72,74,70,68,96,78,54,30.18,30.04,0,-999,0,0.00
2013-8-30,86,78,73,74,70,67,97,78,54,30.15,30.02,0,-999,0,0.00
2013-8-31,99,85,72,72,67,61,93,59,31,30.10,29.95,0,-999,0,0.00